Ignacio, CO (81137)

9:41 AM MDT on September 21, 2017 (GMT -0600)
El Paso Road | | Change Station
Active Advisory: Fire Weather Warning

Elev 6509 ft 37.11 °N, 107.64 °W | Updated 13 minutes ago

Clear
Clear
52.0 °F
Feels Like 52.0 °F
N
0.6
Wind Variable Wind from NE
Gusts 2.5 mph

Today
High -- | Low -- °F
--% Chance of Precip.
Yesterday
High -- | Low -- °F
Precip. -- in
Pressure 29.95 in
Visibility 10.0 miles
Clouds Clear
Dew Point 32 °F
Humidity 47%
Rainfall 0.00 in
Snow Depth Not available.
6:57 AM 7:08 PM
New Moon, 2% visible
METAR KDRO 211453Z AUTO 10006KT 10SM CLR 11/02 A3011 RMK AO2 SLP141 T01060017 51006
Pressure 29.95 in
Visibility 10.0 miles
Clouds Clear
Dew Point 32 °F
Humidity 47%
Rainfall 0.00 in
Snow Depth Not available.
6:57 AM 7:08 PM
New Moon, 2% visible
METAR KDRO 211453Z AUTO 10006KT 10SM CLR 11/02 A3011 RMK AO2 SLP141 T01060017 51006

Get Your Daily Forecast Email!

Thanks for signing up!

Be on the lookout for a verification email in your inbox.

You'll start receiving severe weather alerts in your inbox..

×

10-Day Weather Forecast

Almanac

Astronomy

Sep. 21, 2017 Rise Set
Actual Time
Civil Twilight
Nautical Twilight
Astronomical Twilight
Moon
Length of Visible Light
Length of Day
Tomorrow will be .
, % of the Moon is Illuminated

Today's Extremes

State Highs State Lows

Community

WunderPhotos

Category 6

Welcome to Category 6. This is the collective home for Weather Underground's featured writeups by Dr. Jeff Masters (right), Bob Henson (left), Chris Burt, and other regular contributors.

Nearby

Air Quality

  Air Quality AQ Index Pollutant
Not available.

Snow Depth

Station Depth Elevation

Earthquake Activity

City Distance Mag. Time & Date
Minimum magnitude displayed is 2.5.

Coastal Water Temperatures

Place Temperature

Stations

Nearby Weather Stations

Station Location Temp. Windchill Dew Point Humidity Wind Precip. Elev Updated Type
                   

Watches & Warnings

Fire Weather Warning
Issued: 4:34 AM MDT Sep. 21, 2017 – National Weather Service

... Red flag warning remains in effect from 1 PM this afternoon to
7 PM MDT this evening for wind and low relative humidityand dry
fuels...

* affected area... in Colorado, fire weather zone 207 southwest
Colorado lower forecast area and fire weather zone 290 Paradox
Valley forecast area.

* Winds... south 15 to 25 mph with gusts up to 40 mph.

* Relative humidity... 12 to 17 percent.

* Impacts... fire starts and existing fires could be difficult or
impossible to control due to fast rates of spread.

Precautionary/preparedness actions...

A red flag warning means that critical fire weather conditions
are either occurring now, or will shortly. A combination of
strong winds, low relative humidity, and warm temperatures can
contribute to extreme fire behavior.